sensor_id;sensor_type;location;lat;lon;timestamp;P1;durP1;ratioP1;P2;durP2;ratioP2
75744;SDS011;64359;51.366;-0.222;2023-07-29T00:01:01;0.80;;;0.80;;
75744;SDS011;64359;51.366;-0.222;2023-07-29T00:02:05;0.70;;;0.70;;
75744;SDS011;64359;51.366;-0.222;2023-07-29T00:03:10;0.90;;;0.90;;
75744;SDS011;64359;51.366;-0.222;2023-07-29T00:04:14;1.70;;;1.40;;
75744;SDS011;64359;51.366;-0.222;2023-07-29T00:05:20;1.10;;;1.00;;
75744;SDS011;64359;51.366;-0.222;2023-07-29T00:06:24;1.40;;;1.10;;
75744;SDS011;64359;51.366;-0.222;2023-07-29T00:07:29;1.00;;;0.90;;
75744;SDS011;64359;51.366;-0.222;2023-07-29T00:08:34;1.60;;;1.20;;
75744;SDS011;64359;51.366;-0.222;2023-07-29T00:09:39;0.90;;;0.90;;
75744;SDS011;64359;51.366;-0.222;2023-07-29T00:10:43;1.50;;;1.10;;
75744;SDS011;64359;51.366;-0.222;2023-07-29T00:11:48;1.10;;;1.00;;
75744;SDS011;64359;51.366;-0.222;2023-07-29T00:12:52;1.30;;;1.20;;
75744;SDS011;64359;51.366;-0.222;2023-07-29T00:13:56;0.90;;;0.90;;
75744;SDS011;64359;51.366;-0.222;2023-07-29T00:15:01;1.50;;;1.00;;
75744;SDS011;64359;51.366;-0.222;2023-07-29T00:16:07;1.00;;;1.00;;
75744;SDS011;64359;51.366;-0.222;2023-07-29T00:17:12;0.70;;;0.70;;
75744;SDS011;64359;51.366;-0.222;2023-07-29T00:18:16;1.20;;;1.00;;
75744;SDS011;64359;51.366;-0.222;2023-07-29T00:19:20;1.20;;;1.10;;
75744;SDS011;64359;51.366;-0.222;2023-07-29T00:20:26;1.20;;;1.00;;
75744;SDS011;64359;51.366;-0.222;2023-07-29T00:21:30;1.10;;;1.10;;
75744;SDS011;64359;51.366;-0.222;2023-07-29T00:22:35;2.50;;;1.10;;
75744;SDS011;64359;51.366;-0.222;2023-07-29T00:23:40;0.90;;;0.90;;
75744;SDS011;64359;51.366;-0.222;2023-07-29T00:24:44;1.00;;;1.00;;
75744;SDS011;64359;51.366;-0.222;2023-07-29T00:25:53;0.80;;;0.80;;
75744;SDS011;64359;51.366;-0.222;2023-07-29T00:26:58;1.10;;;1.00;;
75744;SDS011;64359;51.366;-0.222;2023-07-29T00:28:02;1.20;;;1.00;;
75744;SDS011;64359;51.366;-0.222;2023-07-29T00:29:07;1.00;;;1.00;;
75744;SDS011;64359;51.366;-0.222;2023-07-29T00:30:12;1.10;;;1.00;;
75744;SDS011;64359;51.366;-0.222;2023-07-29T00:31:16;1.10;;;1.00;;
75744;SDS011;64359;51.366;-0.222;2023-07-29T00:32:20;1.30;;;1.20;;
75744;SDS011;64359;51.366;-0.222;2023-07-29T00:33:25;1.40;;;1.30;;
75744;SDS011;64359;51.366;-0.222;2023-07-29T00:34:29;0.90;;;0.90;;
75744;SDS011;64359;51.366;-0.222;2023-07-29T00:35:33;1.10;;;1.10;;
75744;SDS011;64359;51.366;-0.222;2023-07-29T00:36:38;1.10;;;1.10;;
75744;SDS011;64359;51.366;-0.222;2023-07-29T00:37:42;1.10;;;1.00;;
75744;SDS011;64359;51.366;-0.222;2023-07-29T00:38:47;1.00;;;1.00;;
75744;SDS011;64359;51.366;-0.222;2023-07-29T00:39:52;1.10;;;1.00;;
75744;SDS011;64359;51.366;-0.222;2023-07-29T00:40:57;0.90;;;0.80;;
75744;SDS011;64359;51.366;-0.222;2023-07-29T00:42:03;0.70;;;0.70;;
75744;SDS011;64359;51.366;-0.222;2023-07-29T00:43:08;1.00;;;1.00;;
75744;SDS011;64359;51.366;-0.222;2023-07-29T00:44:12;0.80;;;0.80;;
75744;SDS011;64359;51.366;-0.222;2023-07-29T00:45:16;0.90;;;0.90;;
75744;SDS011;64359;51.366;-0.222;2023-07-29T00:46:21;0.90;;;0.90;;
75744;SDS011;64359;51.366;-0.222;2023-07-29T00:47:27;2.10;;;1.00;;
75744;SDS011;64359;51.366;-0.222;2023-07-29T00:48:31;1.10;;;1.00;;
75744;SDS011;64359;51.366;-0.222;2023-07-29T00:49:35;1.00;;;1.00;;
75744;SDS011;64359;51.366;-0.222;2023-07-29T00:50:40;0.70;;;0.70;;
75744;SDS011;64359;51.366;-0.222;2023-07-29T00:51:44;0.80;;;0.70;;
75744;SDS011;64359;51.366;-0.222;2023-07-29T00:52:48;1.00;;;0.90;;
75744;SDS011;64359;51.366;-0.222;2023-07-29T00:53:53;1.20;;;1.00;;
75744;SDS011;64359;51.366;-0.222;2023-07-29T00:54:57;0.90;;;0.90;;
75744;SDS011;64359;51.366;-0.222;2023-07-29T00:56:01;0.90;;;0.90;;
75744;SDS011;64359;51.366;-0.222;2023-07-29T00:57:07;0.70;;;0.70;;
75744;SDS011;64359;51.366;-0.222;2023-07-29T00:58:15;1.30;;;1.20;;
75744;SDS011;64359;51.366;-0.222;2023-07-29T00:59:19;1.00;;;1.00;;
75744;SDS011;64359;51.366;-0.222;2023-07-29T01:00:24;0.90;;;0.90;;
75744;SDS011;64359;51.366;-0.222;2023-07-29T01:01:29;0.90;;;0.90;;
75744;SDS011;64359;51.366;-0.222;2023-07-29T01:02:33;0.80;;;0.80;;
75744;SDS011;64359;51.366;-0.222;2023-07-29T01:03:38;0.90;;;0.90;;
75744;SDS011;64359;51.366;-0.222;2023-07-29T01:04:43;1.20;;;1.10;;
75744;SDS011;64359;51.366;-0.222;2023-07-29T01:05:50;1.20;;;1.10;;
75744;SDS011;64359;51.366;-0.222;2023-07-29T01:07:11;1.10;;;1.00;;
75744;SDS011;64359;51.366;-0.222;2023-07-29T01:08:25;1.40;;;1.30;;
75744;SDS011;64359;51.366;-0.222;2023-07-29T01:09:36;1.00;;;1.00;;
75744;SDS011;64359;51.366;-0.222;2023-07-29T01:10:54;1.40;;;1.20;;
75744;SDS011;64359;51.366;-0.222;2023-07-29T01:12:08;1.30;;;1.20;;
75744;SDS011;64359;51.366;-0.222;2023-07-29T01:13:19;1.20;;;1.10;;
75744;SDS011;64359;51.366;-0.222;2023-07-29T01:14:29;1.10;;;1.10;;
75744;SDS011;64359;51.366;-0.222;2023-07-29T01:15:41;1.40;;;1.30;;
75744;SDS011;64359;51.366;-0.222;2023-07-29T01:16:52;1.30;;;1.20;;
75744;SDS011;64359;51.366;-0.222;2023-07-29T01:18:03;1.30;;;1.20;;
75744;SDS011;64359;51.366;-0.222;2023-07-29T01:19:12;1.30;;;1.20;;
75744;SDS011;64359;51.366;-0.222;2023-07-29T01:20:29;1.30;;;1.10;;
75744;SDS011;64359;51.366;-0.222;2023-07-29T01:21:39;1.20;;;1.00;;
75744;SDS011;64359;51.366;-0.222;2023-07-29T01:22:45;1.50;;;1.30;;
75744;SDS011;64359;51.366;-0.222;2023-07-29T01:23:53;1.50;;;1.40;;
75744;SDS011;64359;51.366;-0.222;2023-07-29T01:25:00;1.40;;;1.20;;
75744;SDS011;64359;51.366;-0.222;2023-07-29T01:26:05;1.20;;;1.10;;
75744;SDS011;64359;51.366;-0.222;2023-07-29T01:27:09;1.40;;;1.30;;
75744;SDS011;64359;51.366;-0.222;2023-07-29T01:28:14;1.70;;;1.60;;
75744;SDS011;64359;51.366;-0.222;2023-07-29T01:29:18;1.20;;;1.20;;
75744;SDS011;64359;51.366;-0.222;2023-07-29T01:30:25;1.00;;;1.00;;
75744;SDS011;64359;51.366;-0.222;2023-07-29T01:31:33;1.30;;;1.20;;
75744;SDS011;64359;51.366;-0.222;2023-07-29T01:32:45;1.30;;;1.20;;
75744;SDS011;64359;51.366;-0.222;2023-07-29T01:33:57;1.00;;;1.00;;
75744;SDS011;64359;51.366;-0.222;2023-07-29T01:35:10;1.20;;;1.20;;
75744;SDS011;64359;51.366;-0.222;2023-07-29T01:36:22;1.40;;;1.30;;
75744;SDS011;64359;51.366;-0.222;2023-07-29T01:37:30;1.30;;;1.10;;
75744;SDS011;64359;51.366;-0.222;2023-07-29T01:38:37;1.60;;;1.50;;
75744;SDS011;64359;51.366;-0.222;2023-07-29T01:39:44;1.50;;;1.30;;
75744;SDS011;64359;51.366;-0.222;2023-07-29T01:40:50;1.40;;;1.30;;
75744;SDS011;64359;51.366;-0.222;2023-07-29T01:41:55;1.70;;;1.60;;
75744;SDS011;64359;51.366;-0.222;2023-07-29T01:42:59;1.40;;;1.10;;
75744;SDS011;64359;51.366;-0.222;2023-07-29T01:44:04;1.60;;;1.50;;
75744;SDS011;64359;51.366;-0.222;2023-07-29T01:45:10;1.60;;;1.50;;
75744;SDS011;64359;51.366;-0.222;2023-07-29T01:46:14;0.80;;;0.80;;
75744;SDS011;64359;51.366;-0.222;2023-07-29T01:47:22;0.70;;;0.70;;
75744;SDS011;64359;51.366;-0.222;2023-07-29T01:48:29;1.30;;;1.30;;
75744;SDS011;64359;51.366;-0.222;2023-07-29T01:49:33;1.40;;;1.30;;
75744;SDS011;64359;51.366;-0.222;2023-07-29T01:50:37;1.10;;;1.10;;
75744;SDS011;64359;51.366;-0.222;2023-07-29T01:51:42;1.20;;;1.10;;
75744;SDS011;64359;51.366;-0.222;2023-07-29T01:52:46;1.70;;;1.20;;
75744;SDS011;64359;51.366;-0.222;2023-07-29T01:53:50;1.30;;;1.20;;
75744;SDS011;64359;51.366;-0.222;2023-07-29T01:54:56;1.40;;;1.30;;
75744;SDS011;64359;51.366;-0.222;2023-07-29T01:56:01;1.60;;;1.50;;
75744;SDS011;64359;51.366;-0.222;2023-07-29T01:57:05;1.50;;;1.30;;
75744;SDS011;64359;51.366;-0.222;2023-07-29T01:58:10;1.20;;;1.20;;
75744;SDS011;64359;51.366;-0.222;2023-07-29T01:59:14;1.80;;;1.50;;
75744;SDS011;64359;51.366;-0.222;2023-07-29T02:00:19;1.40;;;1.30;;
75744;SDS011;64359;51.366;-0.222;2023-07-29T02:01:23;1.30;;;1.20;;
75744;SDS011;64359;51.366;-0.222;2023-07-29T02:02:27;1.30;;;1.20;;
75744;SDS011;64359;51.366;-0.222;2023-07-29T02:03:32;1.70;;;1.60;;
75744;SDS011;64359;51.366;-0.222;2023-07-29T02:04:36;1.60;;;1.50;;
75744;SDS011;64359;51.366;-0.222;2023-07-29T02:05:41;1.30;;;1.20;;
75744;SDS011;64359;51.366;-0.222;2023-07-29T02:06:46;1.50;;;1.40;;
75744;SDS011;64359;51.366;-0.222;2023-07-29T02:07:50;1.50;;;1.40;;
75744;SDS011;64359;51.366;-0.222;2023-07-29T02:08:55;1.80;;;1.50;;
75744;SDS011;64359;51.366;-0.222;2023-07-29T02:10:00;1.40;;;1.30;;
75744;SDS011;64359;51.366;-0.222;2023-07-29T02:11:04;1.50;;;1.40;;
75744;SDS011;64359;51.366;-0.222;2023-07-29T02:12:09;1.60;;;1.50;;
75744;SDS011;64359;51.366;-0.222;2023-07-29T02:13:13;1.40;;;1.10;;
75744;SDS011;64359;51.366;-0.222;2023-07-29T02:14:18;1.60;;;1.50;;
75744;SDS011;64359;51.366;-0.222;2023-07-29T02:15:22;1.50;;;1.40;;
75744;SDS011;64359;51.366;-0.222;2023-07-29T02:16:26;2.00;;;1.90;;
75744;SDS011;64359;51.366;-0.222;2023-07-29T02:17:31;1.50;;;1.40;;
75744;SDS011;64359;51.366;-0.222;2023-07-29T02:18:35;1.90;;;1.50;;
75744;SDS011;64359;51.366;-0.222;2023-07-29T02:19:40;1.40;;;1.30;;
75744;SDS011;64359;51.366;-0.222;2023-07-29T02:20:44;1.40;;;1.30;;
75744;SDS011;64359;51.366;-0.222;2023-07-29T02:21:50;1.80;;;1.60;;
75744;SDS011;64359;51.366;-0.222;2023-07-29T02:22:55;1.40;;;1.30;;
75744;SDS011;64359;51.366;-0.222;2023-07-29T02:23:59;1.50;;;1.40;;
75744;SDS011;64359;51.366;-0.222;2023-07-29T02:25:04;1.60;;;1.50;;
75744;SDS011;64359;51.366;-0.222;2023-07-29T02:26:09;1.60;;;1.40;;
75744;SDS011;64359;51.366;-0.222;2023-07-29T02:27:13;1.30;;;1.20;;
75744;SDS011;64359;51.366;-0.222;2023-07-29T02:28:17;1.80;;;1.60;;
75744;SDS011;64359;51.366;-0.222;2023-07-29T02:29:22;1.50;;;1.40;;
75744;SDS011;64359;51.366;-0.222;2023-07-29T02:30:27;1.40;;;1.30;;
75744;SDS011;64359;51.366;-0.222;2023-07-29T02:31:31;1.80;;;1.70;;
75744;SDS011;64359;51.366;-0.222;2023-07-29T02:32:38;1.30;;;1.20;;
75744;SDS011;64359;51.366;-0.222;2023-07-29T02:33:42;1.40;;;1.30;;
75744;SDS011;64359;51.366;-0.222;2023-07-29T02:34:47;1.70;;;1.50;;
75744;SDS011;64359;51.366;-0.222;2023-07-29T02:35:51;1.40;;;1.30;;
75744;SDS011;64359;51.366;-0.222;2023-07-29T02:36:55;1.50;;;1.40;;
75744;SDS011;64359;51.366;-0.222;2023-07-29T02:37:59;1.50;;;1.40;;
75744;SDS011;64359;51.366;-0.222;2023-07-29T02:39:04;1.10;;;1.10;;
75744;SDS011;64359;51.366;-0.222;2023-07-29T02:40:09;1.00;;;1.00;;
75744;SDS011;64359;51.366;-0.222;2023-07-29T02:41:14;1.40;;;1.30;;
75744;SDS011;64359;51.366;-0.222;2023-07-29T02:42:18;1.40;;;1.30;;
75744;SDS011;64359;51.366;-0.222;2023-07-29T02:43:22;1.60;;;1.30;;
75744;SDS011;64359;51.366;-0.222;2023-07-29T02:44:27;1.60;;;1.50;;
75744;SDS011;64359;51.366;-0.222;2023-07-29T02:45:31;1.40;;;1.30;;
75744;SDS011;64359;51.366;-0.222;2023-07-29T02:46:35;1.20;;;1.10;;
75744;SDS011;64359;51.366;-0.222;2023-07-29T02:47:40;1.50;;;1.40;;
75744;SDS011;64359;51.366;-0.222;2023-07-29T02:48:45;1.70;;;1.60;;
75744;SDS011;64359;51.366;-0.222;2023-07-29T02:49:49;1.70;;;1.40;;
75744;SDS011;64359;51.366;-0.222;2023-07-29T02:50:53;1.50;;;1.40;;
75744;SDS011;64359;51.366;-0.222;2023-07-29T02:51:58;1.40;;;1.30;;
75744;SDS011;64359;51.366;-0.222;2023-07-29T02:53:02;1.60;;;1.40;;
75744;SDS011;64359;51.366;-0.222;2023-07-29T02:54:06;1.50;;;1.40;;
75744;SDS011;64359;51.366;-0.222;2023-07-29T02:55:11;1.30;;;1.20;;
75744;SDS011;64359;51.366;-0.222;2023-07-29T02:56:15;1.20;;;1.10;;
75744;SDS011;64359;51.366;-0.222;2023-07-29T02:57:19;1.40;;;1.30;;
75744;SDS011;64359;51.366;-0.222;2023-07-29T02:58:24;1.50;;;1.40;;
75744;SDS011;64359;51.366;-0.222;2023-07-29T02:59:28;1.50;;;1.40;;
75744;SDS011;64359;51.366;-0.222;2023-07-29T03:00:33;1.40;;;1.30;;
75744;SDS011;64359;51.366;-0.222;2023-07-29T03:01:38;1.60;;;1.50;;
75744;SDS011;64359;51.366;-0.222;2023-07-29T03:02:42;1.60;;;1.50;;
75744;SDS011;64359;51.366;-0.222;2023-07-29T03:03:46;1.60;;;1.50;;
75744;SDS011;64359;51.366;-0.222;2023-07-29T03:04:51;1.30;;;1.30;;
75744;SDS011;64359;51.366;-0.222;2023-07-29T03:05:58;1.50;;;1.30;;
75744;SDS011;64359;51.366;-0.222;2023-07-29T03:07:03;1.60;;;1.50;;
75744;SDS011;64359;51.366;-0.222;2023-07-29T03:08:08;1.50;;;1.40;;
75744;SDS011;64359;51.366;-0.222;2023-07-29T03:09:12;1.90;;;1.50;;
75744;SDS011;64359;51.366;-0.222;2023-07-29T03:10:16;1.70;;;1.60;;
75744;SDS011;64359;51.366;-0.222;2023-07-29T03:11:22;1.30;;;1.20;;
75744;SDS011;64359;51.366;-0.222;2023-07-29T03:12:26;1.50;;;1.40;;
75744;SDS011;64359;51.366;-0.222;2023-07-29T03:13:31;1.60;;;1.40;;
75744;SDS011;64359;51.366;-0.222;2023-07-29T03:14:35;1.60;;;1.30;;
75744;SDS011;64359;51.366;-0.222;2023-07-29T03:15:39;1.40;;;1.30;;
75744;SDS011;64359;51.366;-0.222;2023-07-29T03:16:44;1.60;;;1.50;;
75744;SDS011;64359;51.366;-0.222;2023-07-29T03:17:48;1.50;;;1.40;;
75744;SDS011;64359;51.366;-0.222;2023-07-29T03:18:52;2.20;;;1.70;;
75744;SDS011;64359;51.366;-0.222;2023-07-29T03:19:57;1.70;;;1.60;;
75744;SDS011;64359;51.366;-0.222;2023-07-29T03:21:01;1.50;;;1.40;;
75744;SDS011;64359;51.366;-0.222;2023-07-29T03:22:06;1.80;;;1.50;;
75744;SDS011;64359;51.366;-0.222;2023-07-29T03:23:10;2.00;;;1.50;;
75744;SDS011;64359;51.366;-0.222;2023-07-29T03:24:14;1.70;;;1.60;;
75744;SDS011;64359;51.366;-0.222;2023-07-29T03:25:19;1.50;;;1.40;;
75744;SDS011;64359;51.366;-0.222;2023-07-29T03:26:23;1.80;;;1.70;;
75744;SDS011;64359;51.366;-0.222;2023-07-29T03:27:27;1.70;;;1.60;;
75744;SDS011;64359;51.366;-0.222;2023-07-29T03:28:32;2.00;;;1.80;;
75744;SDS011;64359;51.366;-0.222;2023-07-29T03:29:37;1.70;;;1.60;;
75744;SDS011;64359;51.366;-0.222;2023-07-29T03:30:41;1.60;;;1.50;;
75744;SDS011;64359;51.366;-0.222;2023-07-29T03:31:45;1.50;;;1.40;;
75744;SDS011;64359;51.366;-0.222;2023-07-29T03:32:50;1.70;;;1.40;;
75744;SDS011;64359;51.366;-0.222;2023-07-29T03:33:54;1.50;;;1.40;;
75744;SDS011;64359;51.366;-0.222;2023-07-29T03:34:58;1.40;;;1.20;;
75744;SDS011;64359;51.366;-0.222;2023-07-29T03:36:03;1.50;;;1.30;;
75744;SDS011;64359;51.366;-0.222;2023-07-29T03:37:07;1.20;;;1.10;;
75744;SDS011;64359;51.366;-0.222;2023-07-29T03:38:12;1.60;;;1.30;;
75744;SDS011;64359;51.366;-0.222;2023-07-29T03:39:16;1.40;;;1.30;;
75744;SDS011;64359;51.366;-0.222;2023-07-29T03:40:20;1.40;;;1.30;;
75744;SDS011;64359;51.366;-0.222;2023-07-29T03:41:25;1.50;;;1.40;;
75744;SDS011;64359;51.366;-0.222;2023-07-29T03:42:29;1.50;;;1.40;;
75744;SDS011;64359;51.366;-0.222;2023-07-29T03:43:33;1.60;;;1.50;;
75744;SDS011;64359;51.366;-0.222;2023-07-29T03:44:38;1.50;;;1.40;;
75744;SDS011;64359;51.366;-0.222;2023-07-29T03:45:42;1.70;;;1.60;;
75744;SDS011;64359;51.366;-0.222;2023-07-29T03:46:46;1.70;;;1.40;;
75744;SDS011;64359;51.366;-0.222;2023-07-29T03:47:51;1.90;;;1.70;;
75744;SDS011;64359;51.366;-0.222;2023-07-29T03:48:55;1.60;;;1.50;;
75744;SDS011;64359;51.366;-0.222;2023-07-29T03:49:59;2.40;;;1.50;;
75744;SDS011;64359;51.366;-0.222;2023-07-29T03:51:04;1.70;;;1.60;;
75744;SDS011;64359;51.366;-0.222;2023-07-29T03:52:09;1.70;;;1.60;;
75744;SDS011;64359;51.366;-0.222;2023-07-29T03:53:13;1.80;;;1.60;;
75744;SDS011;64359;51.366;-0.222;2023-07-29T03:54:18;2.00;;;1.80;;
75744;SDS011;64359;51.366;-0.222;2023-07-29T03:55:22;1.60;;;1.40;;
75744;SDS011;64359;51.366;-0.222;2023-07-29T03:56:27;1.60;;;1.50;;
75744;SDS011;64359;51.366;-0.222;2023-07-29T03:57:31;1.80;;;1.70;;
75744;SDS011;64359;51.366;-0.222;2023-07-29T03:58:35;1.70;;;1.60;;
75744;SDS011;64359;51.366;-0.222;2023-07-29T03:59:39;1.80;;;1.70;;
75744;SDS011;64359;51.366;-0.222;2023-07-29T04:00:44;2.20;;;1.60;;
75744;SDS011;64359;51.366;-0.222;2023-07-29T04:01:48;1.80;;;1.70;;
75744;SDS011;64359;51.366;-0.222;2023-07-29T04:02:52;1.80;;;1.70;;
75744;SDS011;64359;51.366;-0.222;2023-07-29T04:03:57;1.50;;;1.40;;
75744;SDS011;64359;51.366;-0.222;2023-07-29T04:05:01;2.00;;;1.80;;
75744;SDS011;64359;51.366;-0.222;2023-07-29T04:06:06;1.90;;;1.70;;
75744;SDS011;64359;51.366;-0.222;2023-07-29T04:07:10;2.80;;;1.90;;
75744;SDS011;64359;51.366;-0.222;2023-07-29T04:08:14;1.70;;;1.60;;
75744;SDS011;64359;51.366;-0.222;2023-07-29T04:09:19;1.60;;;1.50;;
75744;SDS011;64359;51.366;-0.222;2023-07-29T04:10:24;1.50;;;1.40;;
75744;SDS011;64359;51.366;-0.222;2023-07-29T04:11:29;2.00;;;1.40;;
75744;SDS011;64359;51.366;-0.222;2023-07-29T04:12:33;1.70;;;1.60;;
75744;SDS011;64359;51.366;-0.222;2023-07-29T04:13:37;1.60;;;1.50;;
75744;SDS011;64359;51.366;-0.222;2023-07-29T04:14:42;2.00;;;1.80;;
75744;SDS011;64359;51.366;-0.222;2023-07-29T04:15:46;1.70;;;1.50;;
75744;SDS011;64359;51.366;-0.222;2023-07-29T04:16:51;1.70;;;1.40;;
75744;SDS011;64359;51.366;-0.222;2023-07-29T04:17:55;2.10;;;1.90;;
75744;SDS011;64359;51.366;-0.222;2023-07-29T04:18:59;1.90;;;1.50;;
75744;SDS011;64359;51.366;-0.222;2023-07-29T04:20:04;1.90;;;1.80;;
75744;SDS011;64359;51.366;-0.222;2023-07-29T04:21:09;1.70;;;1.60;;
75744;SDS011;64359;51.366;-0.222;2023-07-29T04:22:13;1.60;;;1.50;;
75744;SDS011;64359;51.366;-0.222;2023-07-29T04:23:18;2.10;;;1.50;;
75744;SDS011;64359;51.366;-0.222;2023-07-29T04:24:22;1.60;;;1.50;;
75744;SDS011;64359;51.366;-0.222;2023-07-29T04:25:27;1.70;;;1.60;;
75744;SDS011;64359;51.366;-0.222;2023-07-29T04:26:31;1.40;;;1.30;;
75744;SDS011;64359;51.366;-0.222;2023-07-29T04:27:36;1.50;;;1.30;;
75744;SDS011;64359;51.366;-0.222;2023-07-29T04:28:40;1.80;;;1.60;;
75744;SDS011;64359;51.366;-0.222;2023-07-29T04:29:45;1.30;;;1.20;;
75744;SDS011;64359;51.366;-0.222;2023-07-29T04:30:49;1.40;;;1.30;;
75744;SDS011;64359;51.366;-0.222;2023-07-29T04:31:53;1.90;;;1.50;;
75744;SDS011;64359;51.366;-0.222;2023-07-29T04:32:57;1.50;;;1.40;;
75744;SDS011;64359;51.366;-0.222;2023-07-29T04:34:02;1.80;;;1.50;;
75744;SDS011;64359;51.366;-0.222;2023-07-29T04:35:07;1.60;;;1.50;;
75744;SDS011;64359;51.366;-0.222;2023-07-29T04:36:12;1.40;;;1.30;;
75744;SDS011;64359;51.366;-0.222;2023-07-29T04:37:16;1.70;;;1.60;;
75744;SDS011;64359;51.366;-0.222;2023-07-29T04:38:21;1.60;;;1.50;;
75744;SDS011;64359;51.366;-0.222;2023-07-29T04:39:26;2.20;;;1.90;;
75744;SDS011;64359;51.366;-0.222;2023-07-29T04:40:33;1.90;;;1.70;;
75744;SDS011;64359;51.366;-0.222;2023-07-29T04:41:37;1.70;;;1.60;;
75744;SDS011;64359;51.366;-0.222;2023-07-29T04:42:42;1.70;;;1.60;;
75744;SDS011;64359;51.366;-0.222;2023-07-29T04:43:46;1.60;;;1.50;;
75744;SDS011;64359;51.366;-0.222;2023-07-29T04:44:51;1.50;;;1.40;;
75744;SDS011;64359;51.366;-0.222;2023-07-29T04:45:56;1.80;;;1.50;;
75744;SDS011;64359;51.366;-0.222;2023-07-29T04:47:00;1.70;;;1.40;;
75744;SDS011;64359;51.366;-0.222;2023-07-29T04:48:05;1.70;;;1.60;;
75744;SDS011;64359;51.366;-0.222;2023-07-29T04:49:09;1.70;;;1.60;;
75744;SDS011;64359;51.366;-0.222;2023-07-29T04:50:13;1.80;;;1.50;;
75744;SDS011;64359;51.366;-0.222;2023-07-29T04:51:18;1.80;;;1.70;;
75744;SDS011;64359;51.366;-0.222;2023-07-29T04:52:24;1.60;;;1.50;;
75744;SDS011;64359;51.366;-0.222;2023-07-29T04:53:28;1.60;;;1.50;;
75744;SDS011;64359;51.366;-0.222;2023-07-29T04:54:33;1.50;;;1.40;;
75744;SDS011;64359;51.366;-0.222;2023-07-29T04:55:37;1.60;;;1.50;;
75744;SDS011;64359;51.366;-0.222;2023-07-29T04:56:42;1.90;;;1.40;;
75744;SDS011;64359;51.366;-0.222;2023-07-29T04:57:47;1.70;;;1.60;;
75744;SDS011;64359;51.366;-0.222;2023-07-29T04:58:51;1.60;;;1.50;;
75744;SDS011;64359;51.366;-0.222;2023-07-29T04:59:55;1.80;;;1.70;;
75744;SDS011;64359;51.366;-0.222;2023-07-29T05:01:00;1.60;;;1.50;;
75744;SDS011;64359;51.366;-0.222;2023-07-29T05:02:05;1.50;;;1.40;;
75744;SDS011;64359;51.366;-0.222;2023-07-29T05:03:09;1.80;;;1.60;;
75744;SDS011;64359;51.366;-0.222;2023-07-29T05:04:14;1.90;;;1.80;;
75744;SDS011;64359;51.366;-0.222;2023-07-29T05:05:18;1.80;;;1.70;;
75744;SDS011;64359;51.366;-0.222;2023-07-29T05:06:23;1.50;;;1.40;;
75744;SDS011;64359;51.366;-0.222;2023-07-29T05:07:27;1.60;;;1.50;;
75744;SDS011;64359;51.366;-0.222;2023-07-29T05:08:32;2.20;;;1.60;;
75744;SDS011;64359;51.366;-0.222;2023-07-29T05:09:36;2.50;;;2.00;;
75744;SDS011;64359;51.366;-0.222;2023-07-29T05:10:41;1.70;;;1.50;;
75744;SDS011;64359;51.366;-0.222;2023-07-29T05:11:45;1.50;;;1.40;;
75744;SDS011;64359;51.366;-0.222;2023-07-29T05:12:50;2.00;;;1.80;;
75744;SDS011;64359;51.366;-0.222;2023-07-29T05:13:54;1.70;;;1.60;;
75744;SDS011;64359;51.366;-0.222;2023-07-29T05:14:59;2.10;;;1.90;;
75744;SDS011;64359;51.366;-0.222;2023-07-29T05:16:04;1.80;;;1.60;;
75744;SDS011;64359;51.366;-0.222;2023-07-29T05:17:08;1.60;;;1.40;;
75744;SDS011;64359;51.366;-0.222;2023-07-29T05:18:12;1.60;;;1.50;;
75744;SDS011;64359;51.366;-0.222;2023-07-29T05:19:17;1.60;;;1.50;;
75744;SDS011;64359;51.366;-0.222;2023-07-29T05:20:21;2.00;;;1.50;;
75744;SDS011;64359;51.366;-0.222;2023-07-29T05:21:25;1.90;;;1.70;;
75744;SDS011;64359;51.366;-0.222;2023-07-29T05:22:30;1.40;;;1.30;;
75744;SDS011;64359;51.366;-0.222;2023-07-29T05:23:34;1.20;;;1.10;;
75744;SDS011;64359;51.366;-0.222;2023-07-29T05:24:38;1.40;;;1.20;;
75744;SDS011;64359;51.366;-0.222;2023-07-29T05:25:43;1.10;;;1.10;;
75744;SDS011;64359;51.366;-0.222;2023-07-29T05:26:47;1.60;;;1.50;;
75744;SDS011;64359;51.366;-0.222;2023-07-29T05:27:52;1.40;;;1.30;;
75744;SDS011;64359;51.366;-0.222;2023-07-29T05:28:56;1.50;;;1.40;;
75744;SDS011;64359;51.366;-0.222;2023-07-29T05:30:00;1.60;;;1.40;;
75744;SDS011;64359;51.366;-0.222;2023-07-29T05:31:05;1.90;;;1.70;;
75744;SDS011;64359;51.366;-0.222;2023-07-29T05:32:09;1.60;;;1.50;;
75744;SDS011;64359;51.366;-0.222;2023-07-29T05:33:14;1.90;;;1.80;;
75744;SDS011;64359;51.366;-0.222;2023-07-29T05:34:18;1.80;;;1.70;;
75744;SDS011;64359;51.366;-0.222;2023-07-29T05:35:22;1.60;;;1.40;;
75744;SDS011;64359;51.366;-0.222;2023-07-29T05:36:27;2.10;;;1.60;;
75744;SDS011;64359;51.366;-0.222;2023-07-29T05:37:31;1.50;;;1.40;;
75744;SDS011;64359;51.366;-0.222;2023-07-29T05:38:36;2.10;;;1.40;;
75744;SDS011;64359;51.366;-0.222;2023-07-29T05:39:41;1.50;;;1.40;;
75744;SDS011;64359;51.366;-0.222;2023-07-29T05:40:45;2.00;;;1.30;;
75744;SDS011;64359;51.366;-0.222;2023-07-29T05:41:52;1.70;;;1.60;;
75744;SDS011;64359;51.366;-0.222;2023-07-29T05:42:56;1.50;;;1.40;;
75744;SDS011;64359;51.366;-0.222;2023-07-29T05:44:02;1.60;;;1.50;;
75744;SDS011;64359;51.366;-0.222;2023-07-29T05:45:07;1.50;;;1.40;;
75744;SDS011;64359;51.366;-0.222;2023-07-29T05:46:13;1.50;;;1.40;;
75744;SDS011;64359;51.366;-0.222;2023-07-29T05:47:17;2.20;;;1.60;;
75744;SDS011;64359;51.366;-0.222;2023-07-29T05:48:21;1.60;;;1.50;;
75744;SDS011;64359;51.366;-0.222;2023-07-29T05:49:26;1.70;;;1.60;;
75744;SDS011;64359;51.366;-0.222;2023-07-29T05:50:30;1.40;;;1.30;;
75744;SDS011;64359;51.366;-0.222;2023-07-29T05:51:34;1.50;;;1.40;;
75744;SDS011;64359;51.366;-0.222;2023-07-29T05:52:39;1.70;;;1.50;;
75744;SDS011;64359;51.366;-0.222;2023-07-29T05:53:44;1.30;;;1.20;;
75744;SDS011;64359;51.366;-0.222;2023-07-29T05:54:48;1.50;;;1.40;;
75744;SDS011;64359;51.366;-0.222;2023-07-29T05:55:52;1.60;;;1.50;;
75744;SDS011;64359;51.366;-0.222;2023-07-29T05:56:57;1.90;;;1.80;;
75744;SDS011;64359;51.366;-0.222;2023-07-29T05:58:01;1.80;;;1.60;;
75744;SDS011;64359;51.366;-0.222;2023-07-29T05:59:05;2.10;;;1.50;;
75744;SDS011;64359;51.366;-0.222;2023-07-29T06:00:11;2.00;;;1.80;;
75744;SDS011;64359;51.366;-0.222;2023-07-29T06:01:16;1.50;;;1.40;;
75744;SDS011;64359;51.366;-0.222;2023-07-29T06:02:22;2.40;;;1.60;;
75744;SDS011;64359;51.366;-0.222;2023-07-29T06:03:27;1.50;;;1.40;;
75744;SDS011;64359;51.366;-0.222;2023-07-29T06:04:31;1.50;;;1.40;;
75744;SDS011;64359;51.366;-0.222;2023-07-29T06:05:35;1.60;;;1.50;;
75744;SDS011;64359;51.366;-0.222;2023-07-29T06:06:40;2.70;;;1.60;;
75744;SDS011;64359;51.366;-0.222;2023-07-29T06:07:44;1.80;;;1.70;;
75744;SDS011;64359;51.366;-0.222;2023-07-29T06:08:49;2.00;;;1.80;;
75744;SDS011;64359;51.366;-0.222;2023-07-29T06:09:53;2.20;;;1.70;;
75744;SDS011;64359;51.366;-0.222;2023-07-29T06:10:59;2.10;;;1.50;;
75744;SDS011;64359;51.366;-0.222;2023-07-29T06:12:03;1.60;;;1.50;;
75744;SDS011;64359;51.366;-0.222;2023-07-29T06:13:09;1.70;;;1.60;;
75744;SDS011;64359;51.366;-0.222;2023-07-29T06:14:13;1.20;;;1.10;;
75744;SDS011;64359;51.366;-0.222;2023-07-29T06:15:18;1.40;;;1.30;;
75744;SDS011;64359;51.366;-0.222;2023-07-29T06:16:24;1.10;;;1.00;;
75744;SDS011;64359;51.366;-0.222;2023-07-29T06:17:28;2.20;;;1.20;;
75744;SDS011;64359;51.366;-0.222;2023-07-29T06:18:33;1.60;;;1.50;;
75744;SDS011;64359;51.366;-0.222;2023-07-29T06:19:37;1.50;;;1.40;;
75744;SDS011;64359;51.366;-0.222;2023-07-29T06:20:41;1.90;;;1.60;;
75744;SDS011;64359;51.366;-0.222;2023-07-29T06:21:46;2.20;;;1.90;;
75744;SDS011;64359;51.366;-0.222;2023-07-29T06:22:50;1.40;;;1.30;;
75744;SDS011;64359;51.366;-0.222;2023-07-29T06:23:54;1.90;;;1.80;;
75744;SDS011;64359;51.366;-0.222;2023-07-29T06:24:59;2.70;;;2.50;;
75744;SDS011;64359;51.366;-0.222;2023-07-29T06:26:03;1.60;;;1.50;;